sensor_id;sensor_type;location;lat;lon;timestamp;P1;durP1;ratioP1;P2;durP2;ratioP2
37483;SDS011;23337;52.212;9.926;2024-03-17T00:00:22;7.17;;;2.23;;
37483;SDS011;23337;52.212;9.926;2024-03-17T00:02:48;8.63;;;2.63;;
37483;SDS011;23337;52.212;9.926;2024-03-17T00:05:14;8.17;;;3.33;;
37483;SDS011;23337;52.212;9.926;2024-03-17T00:07:40;9.57;;;2.30;;
37483;SDS011;23337;52.212;9.926;2024-03-17T00:10:06;7.00;;;2.20;;
37483;SDS011;23337;52.212;9.926;2024-03-17T00:12:33;11.03;;;2.87;;
37483;SDS011;23337;52.212;9.926;2024-03-17T00:14:59;6.53;;;2.33;;
37483;SDS011;23337;52.212;9.926;2024-03-17T00:17:25;5.23;;;1.87;;
37483;SDS011;23337;52.212;9.926;2024-03-17T00:19:51;10.57;;;2.23;;
37483;SDS011;23337;52.212;9.926;2024-03-17T00:22:17;7.13;;;2.40;;
37483;SDS011;23337;52.212;9.926;2024-03-17T00:24:43;7.47;;;1.83;;
37483;SDS011;23337;52.212;9.926;2024-03-17T00:27:10;6.47;;;2.60;;
37483;SDS011;23337;52.212;9.926;2024-03-17T00:29:37;8.03;;;2.77;;
37483;SDS011;23337;52.212;9.926;2024-03-17T00:32:03;6.53;;;2.37;;
37483;SDS011;23337;52.212;9.926;2024-03-17T00:34:29;5.27;;;2.20;;
37483;SDS011;23337;52.212;9.926;2024-03-17T00:36:55;6.50;;;2.83;;
37483;SDS011;23337;52.212;9.926;2024-03-17T00:39:21;5.53;;;2.47;;
37483;SDS011;23337;52.212;9.926;2024-03-17T00:41:47;8.97;;;2.90;;
37483;SDS011;23337;52.212;9.926;2024-03-17T00:44:14;6.70;;;2.70;;
37483;SDS011;23337;52.212;9.926;2024-03-17T00:46:40;4.63;;;2.60;;
37483;SDS011;23337;52.212;9.926;2024-03-17T00:49:07;4.80;;;2.50;;
37483;SDS011;23337;52.212;9.926;2024-03-17T00:51:33;7.07;;;2.50;;
37483;SDS011;23337;52.212;9.926;2024-03-17T00:53:59;9.80;;;3.50;;
37483;SDS011;23337;52.212;9.926;2024-03-17T00:56:25;7.07;;;3.10;;
37483;SDS011;23337;52.212;9.926;2024-03-17T00:58:52;6.40;;;3.53;;
37483;SDS011;23337;52.212;9.926;2024-03-17T01:01:18;5.17;;;2.77;;
37483;SDS011;23337;52.212;9.926;2024-03-17T01:03:45;6.90;;;3.20;;
37483;SDS011;23337;52.212;9.926;2024-03-17T01:06:11;9.87;;;3.43;;
37483;SDS011;23337;52.212;9.926;2024-03-17T01:08:38;6.73;;;2.83;;
37483;SDS011;23337;52.212;9.926;2024-03-17T01:11:04;7.23;;;3.10;;
37483;SDS011;23337;52.212;9.926;2024-03-17T01:13:33;7.83;;;3.67;;
37483;SDS011;23337;52.212;9.926;2024-03-17T01:16:00;8.13;;;3.37;;
37483;SDS011;23337;52.212;9.926;2024-03-17T01:18:26;3.60;;;2.53;;
37483;SDS011;23337;52.212;9.926;2024-03-17T01:20:52;6.63;;;2.47;;
37483;SDS011;23337;52.212;9.926;2024-03-17T01:23:18;3.77;;;2.90;;
37483;SDS011;23337;52.212;9.926;2024-03-17T01:25:44;4.20;;;2.90;;
37483;SDS011;23337;52.212;9.926;2024-03-17T01:28:10;7.73;;;3.50;;
37483;SDS011;23337;52.212;9.926;2024-03-17T01:30:37;4.90;;;3.40;;
37483;SDS011;23337;52.212;9.926;2024-03-17T01:33:04;4.73;;;3.00;;
37483;SDS011;23337;52.212;9.926;2024-03-17T01:35:30;5.23;;;2.53;;
37483;SDS011;23337;52.212;9.926;2024-03-17T01:37:56;6.20;;;2.97;;
37483;SDS011;23337;52.212;9.926;2024-03-17T01:40:22;5.67;;;3.90;;
37483;SDS011;23337;52.212;9.926;2024-03-17T01:42:48;7.23;;;2.97;;
37483;SDS011;23337;52.212;9.926;2024-03-17T01:47:43;6.40;;;2.53;;
37483;SDS011;23337;52.212;9.926;2024-03-17T01:50:10;5.23;;;2.60;;
37483;SDS011;23337;52.212;9.926;2024-03-17T01:52:38;2.50;;;2.10;;
37483;SDS011;23337;52.212;9.926;2024-03-17T01:55:04;5.57;;;2.80;;
37483;SDS011;23337;52.212;9.926;2024-03-17T01:57:30;7.73;;;3.17;;
37483;SDS011;23337;52.212;9.926;2024-03-17T01:59:56;4.67;;;2.60;;
37483;SDS011;23337;52.212;9.926;2024-03-17T02:02:23;5.63;;;2.50;;
37483;SDS011;23337;52.212;9.926;2024-03-17T02:04:49;6.97;;;2.60;;
37483;SDS011;23337;52.212;9.926;2024-03-17T02:07:15;4.90;;;2.83;;
37483;SDS011;23337;52.212;9.926;2024-03-17T02:09:41;6.07;;;3.50;;
37483;SDS011;23337;52.212;9.926;2024-03-17T02:12:08;5.80;;;2.73;;
37483;SDS011;23337;52.212;9.926;2024-03-17T02:14:35;6.67;;;3.17;;
37483;SDS011;23337;52.212;9.926;2024-03-17T02:17:02;6.40;;;2.97;;
37483;SDS011;23337;52.212;9.926;2024-03-17T02:19:29;6.20;;;2.93;;
37483;SDS011;23337;52.212;9.926;2024-03-17T02:21:55;6.67;;;3.00;;
37483;SDS011;23337;52.212;9.926;2024-03-17T02:24:21;5.10;;;3.20;;
37483;SDS011;23337;52.212;9.926;2024-03-17T02:26:47;5.80;;;2.87;;
37483;SDS011;23337;52.212;9.926;2024-03-17T02:29:13;3.67;;;2.73;;
37483;SDS011;23337;52.212;9.926;2024-03-17T02:31:38;6.90;;;3.07;;
37483;SDS011;23337;52.212;9.926;2024-03-17T02:34:05;6.17;;;3.03;;
37483;SDS011;23337;52.212;9.926;2024-03-17T02:36:31;5.67;;;2.70;;
37483;SDS011;23337;52.212;9.926;2024-03-17T02:38:57;5.67;;;2.73;;
37483;SDS011;23337;52.212;9.926;2024-03-17T02:41:42;10.30;;;3.10;;
37483;SDS011;23337;52.212;9.926;2024-03-17T02:44:08;4.53;;;2.87;;
37483;SDS011;23337;52.212;9.926;2024-03-17T02:46:36;6.77;;;3.93;;
37483;SDS011;23337;52.212;9.926;2024-03-17T02:49:03;6.63;;;3.70;;
37483;SDS011;23337;52.212;9.926;2024-03-17T02:51:29;5.80;;;2.97;;
37483;SDS011;23337;52.212;9.926;2024-03-17T02:53:55;4.50;;;3.17;;
37483;SDS011;23337;52.212;9.926;2024-03-17T02:56:21;8.70;;;3.30;;
37483;SDS011;23337;52.212;9.926;2024-03-17T02:58:48;8.53;;;3.17;;
37483;SDS011;23337;52.212;9.926;2024-03-17T03:01:14;11.13;;;3.83;;
37483;SDS011;23337;52.212;9.926;2024-03-17T03:03:41;7.10;;;3.30;;
37483;SDS011;23337;52.212;9.926;2024-03-17T03:06:07;6.47;;;3.20;;
37483;SDS011;23337;52.212;9.926;2024-03-17T03:08:37;8.77;;;3.40;;
37483;SDS011;23337;52.212;9.926;2024-03-17T03:11:04;5.20;;;2.47;;
37483;SDS011;23337;52.212;9.926;2024-03-17T03:13:31;6.13;;;3.33;;
37483;SDS011;23337;52.212;9.926;2024-03-17T03:15:57;6.77;;;3.80;;
37483;SDS011;23337;52.212;9.926;2024-03-17T03:18:23;5.00;;;3.17;;
37483;SDS011;23337;52.212;9.926;2024-03-17T03:20:52;7.07;;;3.23;;
37483;SDS011;23337;52.212;9.926;2024-03-17T03:23:18;6.27;;;4.23;;
37483;SDS011;23337;52.212;9.926;2024-03-17T03:25:44;7.37;;;3.63;;
37483;SDS011;23337;52.212;9.926;2024-03-17T03:28:11;6.37;;;3.67;;
37483;SDS011;23337;52.212;9.926;2024-03-17T03:30:38;12.33;;;3.20;;
37483;SDS011;23337;52.212;9.926;2024-03-17T03:33:04;7.43;;;4.00;;
37483;SDS011;23337;52.212;9.926;2024-03-17T03:35:30;6.97;;;3.80;;
37483;SDS011;23337;52.212;9.926;2024-03-17T03:37:56;5.27;;;3.97;;
37483;SDS011;23337;52.212;9.926;2024-03-17T03:40:22;5.83;;;3.50;;
37483;SDS011;23337;52.212;9.926;2024-03-17T03:42:50;5.00;;;3.27;;
37483;SDS011;23337;52.212;9.926;2024-03-17T03:45:16;7.80;;;3.50;;
37483;SDS011;23337;52.212;9.926;2024-03-17T03:47:42;6.13;;;3.27;;
37483;SDS011;23337;52.212;9.926;2024-03-17T03:50:11;3.90;;;3.00;;
37483;SDS011;23337;52.212;9.926;2024-03-17T03:52:38;6.83;;;3.07;;
37483;SDS011;23337;52.212;9.926;2024-03-17T03:55:10;4.53;;;3.27;;
37483;SDS011;23337;52.212;9.926;2024-03-17T03:57:36;6.60;;;3.53;;
37483;SDS011;23337;52.212;9.926;2024-03-17T04:00:02;6.57;;;3.40;;
37483;SDS011;23337;52.212;9.926;2024-03-17T04:02:42;3.67;;;2.70;;
37483;SDS011;23337;52.212;9.926;2024-03-17T04:05:08;6.13;;;3.07;;
37483;SDS011;23337;52.212;9.926;2024-03-17T04:07:34;6.53;;;3.93;;
37483;SDS011;23337;52.212;9.926;2024-03-17T04:10:01;6.10;;;3.60;;
37483;SDS011;23337;52.212;9.926;2024-03-17T04:12:28;4.83;;;3.27;;
37483;SDS011;23337;52.212;9.926;2024-03-17T04:14:56;6.97;;;3.20;;
37483;SDS011;23337;52.212;9.926;2024-03-17T04:17:22;5.20;;;3.17;;
37483;SDS011;23337;52.212;9.926;2024-03-17T04:19:48;6.70;;;3.10;;
37483;SDS011;23337;52.212;9.926;2024-03-17T04:22:15;5.53;;;2.50;;
37483;SDS011;23337;52.212;9.926;2024-03-17T04:24:44;4.47;;;3.00;;
37483;SDS011;23337;52.212;9.926;2024-03-17T04:27:11;5.10;;;3.40;;
37483;SDS011;23337;52.212;9.926;2024-03-17T04:29:37;6.50;;;3.33;;
37483;SDS011;23337;52.212;9.926;2024-03-17T04:32:03;5.37;;;3.20;;
37483;SDS011;23337;52.212;9.926;2024-03-17T04:34:30;5.63;;;3.20;;
37483;SDS011;23337;52.212;9.926;2024-03-17T04:36:56;6.90;;;3.90;;
37483;SDS011;23337;52.212;9.926;2024-03-17T04:39:22;5.70;;;3.40;;
37483;SDS011;23337;52.212;9.926;2024-03-17T04:41:48;5.50;;;2.90;;
37483;SDS011;23337;52.212;9.926;2024-03-17T04:44:15;7.30;;;3.50;;
37483;SDS011;23337;52.212;9.926;2024-03-17T04:46:41;3.70;;;3.30;;
37483;SDS011;23337;52.212;9.926;2024-03-17T04:49:07;7.23;;;3.70;;
37483;SDS011;23337;52.212;9.926;2024-03-17T04:51:33;6.90;;;3.77;;
37483;SDS011;23337;52.212;9.926;2024-03-17T04:53:59;6.17;;;3.23;;
37483;SDS011;23337;52.212;9.926;2024-03-17T04:56:28;6.00;;;2.93;;
37483;SDS011;23337;52.212;9.926;2024-03-17T04:58:54;4.03;;;3.20;;
37483;SDS011;23337;52.212;9.926;2024-03-17T05:01:20;5.93;;;4.03;;
37483;SDS011;23337;52.212;9.926;2024-03-17T05:03:46;6.67;;;3.07;;
37483;SDS011;23337;52.212;9.926;2024-03-17T05:06:12;8.00;;;3.50;;
37483;SDS011;23337;52.212;9.926;2024-03-17T05:08:38;5.03;;;3.47;;
37483;SDS011;23337;52.212;9.926;2024-03-17T05:11:05;5.33;;;3.03;;
37483;SDS011;23337;52.212;9.926;2024-03-17T05:13:31;6.03;;;3.23;;
37483;SDS011;23337;52.212;9.926;2024-03-17T05:15:57;8.20;;;3.43;;
37483;SDS011;23337;52.212;9.926;2024-03-17T05:18:24;6.60;;;3.23;;
37483;SDS011;23337;52.212;9.926;2024-03-17T05:20:57;5.07;;;3.23;;
37483;SDS011;23337;52.212;9.926;2024-03-17T05:23:25;5.77;;;3.70;;
37483;SDS011;23337;52.212;9.926;2024-03-17T05:25:52;8.53;;;5.40;;
37483;SDS011;23337;52.212;9.926;2024-03-17T05:28:18;8.27;;;3.73;;
37483;SDS011;23337;52.212;9.926;2024-03-17T05:30:44;4.70;;;3.53;;
37483;SDS011;23337;52.212;9.926;2024-03-17T05:33:10;6.47;;;3.43;;
37483;SDS011;23337;52.212;9.926;2024-03-17T05:35:36;6.70;;;3.83;;
37483;SDS011;23337;52.212;9.926;2024-03-17T05:38:03;10.47;;;5.23;;
37483;SDS011;23337;52.212;9.926;2024-03-17T05:40:29;8.10;;;4.27;;
37483;SDS011;23337;52.212;9.926;2024-03-17T05:42:56;8.20;;;4.43;;
37483;SDS011;23337;52.212;9.926;2024-03-17T05:45:22;7.23;;;3.73;;
37483;SDS011;23337;52.212;9.926;2024-03-17T05:47:49;4.97;;;3.60;;
37483;SDS011;23337;52.212;9.926;2024-03-17T05:50:15;5.73;;;3.00;;
37483;SDS011;23337;52.212;9.926;2024-03-17T05:52:41;5.27;;;4.40;;
37483;SDS011;23337;52.212;9.926;2024-03-17T05:55:07;5.33;;;4.00;;
37483;SDS011;23337;52.212;9.926;2024-03-17T05:57:36;9.43;;;4.43;;
37483;SDS011;23337;52.212;9.926;2024-03-17T06:00:02;6.53;;;3.37;;
37483;SDS011;23337;52.212;9.926;2024-03-17T06:02:28;5.17;;;3.30;;
37483;SDS011;23337;52.212;9.926;2024-03-17T06:04:55;7.57;;;3.40;;
37483;SDS011;23337;52.212;9.926;2024-03-17T06:07:22;7.17;;;3.83;;
37483;SDS011;23337;52.212;9.926;2024-03-17T06:09:48;7.47;;;3.67;;
37483;SDS011;23337;52.212;9.926;2024-03-17T06:12:14;5.37;;;3.77;;
37483;SDS011;23337;52.212;9.926;2024-03-17T06:14:40;8.33;;;3.47;;
37483;SDS011;23337;52.212;9.926;2024-03-17T06:17:06;7.10;;;3.97;;
37483;SDS011;23337;52.212;9.926;2024-03-17T06:19:33;4.00;;;2.90;;
37483;SDS011;23337;52.212;9.926;2024-03-17T06:21:59;5.80;;;3.40;;
37483;SDS011;23337;52.212;9.926;2024-03-17T06:24:25;6.13;;;3.47;;
37483;SDS011;23337;52.212;9.926;2024-03-17T06:26:51;4.87;;;3.90;;
37483;SDS011;23337;52.212;9.926;2024-03-17T06:29:17;5.80;;;3.20;;
37483;SDS011;23337;52.212;9.926;2024-03-17T06:31:45;7.07;;;3.70;;
37483;SDS011;23337;52.212;9.926;2024-03-17T06:34:12;4.30;;;2.90;;
37483;SDS011;23337;52.212;9.926;2024-03-17T06:36:40;6.43;;;4.03;;
37483;SDS011;23337;52.212;9.926;2024-03-17T06:39:07;6.93;;;3.40;;
37483;SDS011;23337;52.212;9.926;2024-03-17T06:41:33;6.40;;;4.40;;
37483;SDS011;23337;52.212;9.926;2024-03-17T06:43:59;9.07;;;4.03;;
37483;SDS011;23337;52.212;9.926;2024-03-17T06:46:25;4.37;;;3.97;;
37483;SDS011;23337;52.212;9.926;2024-03-17T06:48:51;4.97;;;4.23;;
37483;SDS011;23337;52.212;9.926;2024-03-17T06:51:18;9.50;;;4.57;;
37483;SDS011;23337;52.212;9.926;2024-03-17T06:53:44;8.07;;;4.73;;
37483;SDS011;23337;52.212;9.926;2024-03-17T06:56:10;5.97;;;5.07;;
37483;SDS011;23337;52.212;9.926;2024-03-17T06:58:36;7.47;;;4.87;;
37483;SDS011;23337;52.212;9.926;2024-03-17T07:01:02;8.57;;;5.03;;
37483;SDS011;23337;52.212;9.926;2024-03-17T07:03:30;6.83;;;5.07;;
37483;SDS011;23337;52.212;9.926;2024-03-17T07:05:57;9.17;;;5.17;;
37483;SDS011;23337;52.212;9.926;2024-03-17T07:08:23;9.70;;;5.03;;
37483;SDS011;23337;52.212;9.926;2024-03-17T07:13:21;5.73;;;4.40;;
37483;SDS011;23337;52.212;9.926;2024-03-17T07:15:47;7.63;;;4.67;;
37483;SDS011;23337;52.212;9.926;2024-03-17T07:18:14;7.43;;;4.13;;
37483;SDS011;23337;52.212;9.926;2024-03-17T07:20:40;7.63;;;4.93;;
37483;SDS011;23337;52.212;9.926;2024-03-17T07:23:06;7.33;;;4.80;;
37483;SDS011;23337;52.212;9.926;2024-03-17T07:25:32;7.87;;;4.43;;
37483;SDS011;23337;52.212;9.926;2024-03-17T07:27:58;7.77;;;4.27;;
37483;SDS011;23337;52.212;9.926;2024-03-17T07:30:24;5.13;;;4.13;;
37483;SDS011;23337;52.212;9.926;2024-03-17T07:32:50;8.27;;;4.43;;
37483;SDS011;23337;52.212;9.926;2024-03-17T07:35:16;8.10;;;4.77;;
37483;SDS011;23337;52.212;9.926;2024-03-17T07:37:42;7.73;;;4.83;;
37483;SDS011;23337;52.212;9.926;2024-03-17T07:40:08;7.60;;;4.10;;
37483;SDS011;23337;52.212;9.926;2024-03-17T07:42:37;9.97;;;5.00;;
37483;SDS011;23337;52.212;9.926;2024-03-17T07:45:03;6.93;;;4.20;;
37483;SDS011;23337;52.212;9.926;2024-03-17T07:47:29;7.10;;;4.57;;
37483;SDS011;23337;52.212;9.926;2024-03-17T07:50:03;9.20;;;3.97;;
37483;SDS011;23337;52.212;9.926;2024-03-17T07:52:30;7.43;;;4.57;;
37483;SDS011;23337;52.212;9.926;2024-03-17T07:54:57;9.93;;;4.83;;
37483;SDS011;23337;52.212;9.926;2024-03-17T07:57:23;7.23;;;4.10;;
37483;SDS011;23337;52.212;9.926;2024-03-17T07:59:51;8.87;;;4.80;;
37483;SDS011;23337;52.212;9.926;2024-03-17T08:02:18;6.07;;;5.10;;
37483;SDS011;23337;52.212;9.926;2024-03-17T08:04:44;6.27;;;4.13;;
37483;SDS011;23337;52.212;9.926;2024-03-17T08:07:10;9.00;;;4.87;;
37483;SDS011;23337;52.212;9.926;2024-03-17T08:09:36;11.13;;;5.37;;
37483;SDS011;23337;52.212;9.926;2024-03-17T08:12:02;7.07;;;4.57;;
37483;SDS011;23337;52.212;9.926;2024-03-17T08:14:29;7.53;;;4.37;;
37483;SDS011;23337;52.212;9.926;2024-03-17T08:16:55;8.40;;;4.10;;
37483;SDS011;23337;52.212;9.926;2024-03-17T08:19:21;6.43;;;3.73;;
37483;SDS011;23337;52.212;9.926;2024-03-17T08:21:47;11.70;;;4.43;;
37483;SDS011;23337;52.212;9.926;2024-03-17T08:24:14;7.73;;;4.40;;
37483;SDS011;23337;52.212;9.926;2024-03-17T08:26:40;10.30;;;3.83;;
37483;SDS011;23337;52.212;9.926;2024-03-17T08:29:06;6.30;;;3.90;;
37483;SDS011;23337;52.212;9.926;2024-03-17T08:31:32;8.23;;;3.57;;
37483;SDS011;23337;52.212;9.926;2024-03-17T08:33:58;6.63;;;3.20;;
37483;SDS011;23337;52.212;9.926;2024-03-17T08:36:24;13.83;;;3.50;;
37483;SDS011;23337;52.212;9.926;2024-03-17T08:38:51;8.67;;;4.03;;
37483;SDS011;23337;52.212;9.926;2024-03-17T08:41:17;11.17;;;3.70;;
37483;SDS011;23337;52.212;9.926;2024-03-17T08:43:43;9.87;;;3.00;;
37483;SDS011;23337;52.212;9.926;2024-03-17T08:46:09;7.17;;;3.10;;
37483;SDS011;23337;52.212;9.926;2024-03-17T08:48:37;12.13;;;4.37;;
37483;SDS011;23337;52.212;9.926;2024-03-17T08:51:05;6.53;;;3.27;;
37483;SDS011;23337;52.212;9.926;2024-03-17T08:53:31;10.13;;;3.33;;
37483;SDS011;23337;52.212;9.926;2024-03-17T08:55:57;9.20;;;3.40;;
37483;SDS011;23337;52.212;9.926;2024-03-17T08:58:23;9.80;;;3.50;;
37483;SDS011;23337;52.212;9.926;2024-03-17T09:00:50;7.03;;;3.40;;
37483;SDS011;23337;52.212;9.926;2024-03-17T09:03:16;10.27;;;3.63;;
37483;SDS011;23337;52.212;9.926;2024-03-17T09:05:43;7.67;;;3.40;;
37483;SDS011;23337;52.212;9.926;2024-03-17T09:08:19;9.97;;;4.00;;
37483;SDS011;23337;52.212;9.926;2024-03-17T09:10:45;9.53;;;3.37;;
37483;SDS011;23337;52.212;9.926;2024-03-17T09:13:13;5.73;;;4.03;;
37483;SDS011;23337;52.212;9.926;2024-03-17T09:15:40;7.90;;;4.17;;
37483;SDS011;23337;52.212;9.926;2024-03-17T09:18:06;8.83;;;3.83;;
37483;SDS011;23337;52.212;9.926;2024-03-17T09:20:32;11.80;;;4.70;;
37483;SDS011;23337;52.212;9.926;2024-03-17T09:22:58;9.30;;;3.73;;
37483;SDS011;23337;52.212;9.926;2024-03-17T09:25:24;7.37;;;4.03;;
37483;SDS011;23337;52.212;9.926;2024-03-17T09:27:50;8.23;;;4.10;;
37483;SDS011;23337;52.212;9.926;2024-03-17T09:30:17;7.40;;;3.93;;
37483;SDS011;23337;52.212;9.926;2024-03-17T09:32:43;9.50;;;3.83;;
37483;SDS011;23337;52.212;9.926;2024-03-17T09:35:09;9.90;;;4.30;;
37483;SDS011;23337;52.212;9.926;2024-03-17T09:37:35;11.33;;;4.07;;
37483;SDS011;23337;52.212;9.926;2024-03-17T09:40:01;8.37;;;3.93;;
37483;SDS011;23337;52.212;9.926;2024-03-17T09:42:31;9.73;;;3.20;;
37483;SDS011;23337;52.212;9.926;2024-03-17T09:44:57;9.93;;;3.97;;
37483;SDS011;23337;52.212;9.926;2024-03-17T09:47:23;8.27;;;3.97;;
37483;SDS011;23337;52.212;9.926;2024-03-17T09:49:51;10.70;;;4.20;;
37483;SDS011;23337;52.212;9.926;2024-03-17T09:52:21;7.70;;;4.50;;
37483;SDS011;23337;52.212;9.926;2024-03-17T09:55:00;9.83;;;4.30;;
37483;SDS011;23337;52.212;9.926;2024-03-17T09:57:27;11.07;;;4.03;;
37483;SDS011;23337;52.212;9.926;2024-03-17T09:59:54;8.37;;;4.23;;
37483;SDS011;23337;52.212;9.926;2024-03-17T10:02:20;6.97;;;3.80;;
37483;SDS011;23337;52.212;9.926;2024-03-17T10:04:46;12.93;;;4.57;;
37483;SDS011;23337;52.212;9.926;2024-03-17T10:07:12;9.77;;;4.40;;
37483;SDS011;23337;52.212;9.926;2024-03-17T10:09:42;11.10;;;5.10;;
37483;SDS011;23337;52.212;9.926;2024-03-17T10:12:27;11.93;;;5.17;;
37483;SDS011;23337;52.212;9.926;2024-03-17T10:14:57;13.40;;;4.70;;
37483;SDS011;23337;52.212;9.926;2024-03-17T10:17:29;7.53;;;4.13;;
37483;SDS011;23337;52.212;9.926;2024-03-17T10:20:10;8.57;;;4.63;;
37483;SDS011;23337;52.212;9.926;2024-03-17T10:22:37;6.97;;;4.40;;
37483;SDS011;23337;52.212;9.926;2024-03-17T10:25:03;10.90;;;5.00;;
37483;SDS011;23337;52.212;9.926;2024-03-17T10:27:30;8.63;;;4.40;;
37483;SDS011;23337;52.212;9.926;2024-03-17T10:29:57;7.87;;;4.43;;
37483;SDS011;23337;52.212;9.926;2024-03-17T10:32:23;7.13;;;4.90;;
37483;SDS011;23337;52.212;9.926;2024-03-17T10:34:51;8.77;;;4.60;;
37483;SDS011;23337;52.212;9.926;2024-03-17T10:37:17;13.87;;;5.27;;
37483;SDS011;23337;52.212;9.926;2024-03-17T10:39:53;10.80;;;5.63;;
37483;SDS011;23337;52.212;9.926;2024-03-17T10:42:26;10.40;;;6.13;;
37483;SDS011;23337;52.212;9.926;2024-03-17T10:44:53;7.83;;;4.93;;
37483;SDS011;23337;52.212;9.926;2024-03-17T10:49:46;10.57;;;4.80;;
37483;SDS011;23337;52.212;9.926;2024-03-17T10:52:16;11.67;;;4.70;;
37483;SDS011;23337;52.212;9.926;2024-03-17T10:54:48;8.47;;;4.50;;
37483;SDS011;23337;52.212;9.926;2024-03-17T10:59:59;8.47;;;4.67;;
37483;SDS011;23337;52.212;9.926;2024-03-17T11:02:29;11.50;;;5.40;;
37483;SDS011;23337;52.212;9.926;2024-03-17T11:07:43;6.70;;;4.77;;
37483;SDS011;23337;52.212;9.926;2024-03-17T11:10:16;5.97;;;5.37;;
37483;SDS011;23337;52.212;9.926;2024-03-17T11:12:44;8.73;;;5.10;;
37483;SDS011;23337;52.212;9.926;2024-03-17T11:17:44;6.10;;;4.80;;
37483;SDS011;23337;52.212;9.926;2024-03-17T11:20:26;8.87;;;4.87;;
37483;SDS011;23337;52.212;9.926;2024-03-17T11:22:57;8.07;;;4.70;;
37483;SDS011;23337;52.212;9.926;2024-03-17T11:27:58;9.20;;;5.47;;
37483;SDS011;23337;52.212;9.926;2024-03-17T11:46:59;8.73;;;4.83;;
37483;SDS011;23337;52.212;9.926;2024-03-17T11:49:29;9.93;;;5.17;;
37483;SDS011;23337;52.212;9.926;2024-03-17T11:51:56;5.40;;;4.90;;
37483;SDS011;23337;52.212;9.926;2024-03-17T11:54:25;9.47;;;6.07;;
37483;SDS011;23337;52.212;9.926;2024-03-17T11:56:56;8.00;;;5.60;;
37483;SDS011;23337;52.212;9.926;2024-03-17T11:59:22;8.30;;;5.30;;
37483;SDS011;23337;52.212;9.926;2024-03-17T12:01:49;8.73;;;5.13;;
37483;SDS011;23337;52.212;9.926;2024-03-17T12:04:15;9.67;;;5.23;;
37483;SDS011;23337;52.212;9.926;2024-03-17T12:06:51;6.70;;;4.83;;
37483;SDS011;23337;52.212;9.926;2024-03-17T12:09:19;7.13;;;5.17;;
37483;SDS011;23337;52.212;9.926;2024-03-17T12:12:00;10.10;;;5.13;;
37483;SDS011;23337;52.212;9.926;2024-03-17T12:14:26;6.20;;;5.27;;
37483;SDS011;23337;52.212;9.926;2024-03-17T12:16:53;9.63;;;5.83;;
37483;SDS011;23337;52.212;9.926;2024-03-17T12:19:20;7.80;;;5.60;;
37483;SDS011;23337;52.212;9.926;2024-03-17T12:21:53;7.33;;;5.57;;
37483;SDS011;23337;52.212;9.926;2024-03-17T12:24:23;7.97;;;5.57;;
37483;SDS011;23337;52.212;9.926;2024-03-17T12:26:49;8.67;;;5.30;;
37483;SDS011;23337;52.212;9.926;2024-03-17T12:31:49;5.90;;;5.30;;
37483;SDS011;23337;52.212;9.926;2024-03-17T12:34:16;7.37;;;5.33;;
37483;SDS011;23337;52.212;9.926;2024-03-17T12:36:42;9.30;;;6.23;;
37483;SDS011;23337;52.212;9.926;2024-03-17T12:39:19;9.10;;;5.60;;
37483;SDS011;23337;52.212;9.926;2024-03-17T12:41:46;6.93;;;5.53;;
37483;SDS011;23337;52.212;9.926;2024-03-17T12:44:27;7.53;;;5.33;;
37483;SDS011;23337;52.212;9.926;2024-03-17T12:46:56;7.63;;;5.10;;
37483;SDS011;23337;52.212;9.926;2024-03-17T12:49:22;9.10;;;5.30;;
37483;SDS011;23337;52.212;9.926;2024-03-17T12:51:52;9.67;;;5.83;;
37483;SDS011;23337;52.212;9.926;2024-03-17T12:54:19;8.97;;;5.53;;
37483;SDS011;23337;52.212;9.926;2024-03-17T12:56:45;8.40;;;5.20;;
37483;SDS011;23337;52.212;9.926;2024-03-17T12:59:40;13.63;;;5.97;;
37483;SDS011;23337;52.212;9.926;2024-03-17T13:02:25;8.27;;;5.40;;
37483;SDS011;23337;52.212;9.926;2024-03-17T13:07:37;8.33;;;5.57;;
37483;SDS011;23337;52.212;9.926;2024-03-17T13:10:04;6.10;;;5.10;;
37483;SDS011;23337;52.212;9.926;2024-03-17T13:12:32;8.83;;;5.30;;
37483;SDS011;23337;52.212;9.926;2024-03-17T13:14:58;6.60;;;5.13;;
37483;SDS011;23337;52.212;9.926;2024-03-17T13:17:24;6.60;;;5.57;;
37483;SDS011;23337;52.212;9.926;2024-03-17T13:19:50;6.77;;;5.53;;
37483;SDS011;23337;52.212;9.926;2024-03-17T13:22:16;8.27;;;5.73;;
37483;SDS011;23337;52.212;9.926;2024-03-17T13:24:42;10.10;;;5.63;;
37483;SDS011;23337;52.212;9.926;2024-03-17T13:27:08;8.53;;;4.83;;
37483;SDS011;23337;52.212;9.926;2024-03-17T13:29:35;8.80;;;5.23;;
37483;SDS011;23337;52.212;9.926;2024-03-17T13:32:02;10.43;;;6.33;;
37483;SDS011;23337;52.212;9.926;2024-03-17T13:34:28;8.23;;;5.93;;
37483;SDS011;23337;52.212;9.926;2024-03-17T13:36:54;7.67;;;5.43;;
37483;SDS011;23337;52.212;9.926;2024-03-17T13:39:21;9.33;;;5.97;;
37483;SDS011;23337;52.212;9.926;2024-03-17T13:41:47;7.30;;;4.67;;
37483;SDS011;23337;52.212;9.926;2024-03-17T13:44:16;8.47;;;6.10;;
37483;SDS011;23337;52.212;9.926;2024-03-17T13:46:42;8.33;;;5.40;;
37483;SDS011;23337;52.212;9.926;2024-03-17T13:49:08;5.77;;;5.10;;
37483;SDS011;23337;52.212;9.926;2024-03-17T13:51:34;6.73;;;5.80;;
37483;SDS011;23337;52.212;9.926;2024-03-17T13:54:00;10.17;;;5.50;;
37483;SDS011;23337;52.212;9.926;2024-03-17T13:56:27;8.47;;;5.17;;
37483;SDS011;23337;52.212;9.926;2024-03-17T13:58:53;8.27;;;5.80;;
37483;SDS011;23337;52.212;9.926;2024-03-17T14:01:19;8.50;;;5.93;;
37483;SDS011;23337;52.212;9.926;2024-03-17T14:03:45;10.23;;;5.50;;
37483;SDS011;23337;52.212;9.926;2024-03-17T14:06:11;9.27;;;4.87;;
37483;SDS011;23337;52.212;9.926;2024-03-17T14:08:37;11.53;;;5.63;;
37483;SDS011;23337;52.212;9.926;2024-03-17T14:11:03;7.60;;;4.40;;
37483;SDS011;23337;52.212;9.926;2024-03-17T14:13:30;9.53;;;5.37;;
37483;SDS011;23337;52.212;9.926;2024-03-17T14:15:56;5.60;;;4.80;;
37483;SDS011;23337;52.212;9.926;2024-03-17T14:18:22;11.50;;;5.80;;
37483;SDS011;23337;52.212;9.926;2024-03-17T14:20:48;11.30;;;6.50;;
37483;SDS011;23337;52.212;9.926;2024-03-17T14:23:15;13.00;;;6.57;;
37483;SDS011;23337;52.212;9.926;2024-03-17T14:25:41;9.93;;;6.00;;
37483;SDS011;23337;52.212;9.926;2024-03-17T14:28:07;10.70;;;5.83;;
37483;SDS011;23337;52.212;9.926;2024-03-17T14:30:34;16.00;;;7.47;;
37483;SDS011;23337;52.212;9.926;2024-03-17T14:33:00;10.63;;;5.93;;
37483;SDS011;23337;52.212;9.926;2024-03-17T14:35:29;10.03;;;6.17;;
37483;SDS011;23337;52.212;9.926;2024-03-17T14:37:55;11.80;;;7.47;;
37483;SDS011;23337;52.212;9.926;2024-03-17T14:40:23;9.07;;;6.27;;
37483;SDS011;23337;52.212;9.926;2024-03-17T14:42:50;9.73;;;5.87;;
37483;SDS011;23337;52.212;9.926;2024-03-17T14:45:16;10.40;;;5.27;;
37483;SDS011;23337;52.212;9.926;2024-03-17T14:47:42;13.77;;;7.87;;
37483;SDS011;23337;52.212;9.926;2024-03-17T14:50:09;15.30;;;8.27;;
37483;SDS011;23337;52.212;9.926;2024-03-17T14:52:37;9.33;;;5.63;;
37483;SDS011;23337;52.212;9.926;2024-03-17T14:55:03;5.97;;;4.40;;
37483;SDS011;23337;52.212;9.926;2024-03-17T14:57:30;11.33;;;5.87;;
37483;SDS011;23337;52.212;9.926;2024-03-17T14:59:56;7.30;;;4.80;;
37483;SDS011;23337;52.212;9.926;2024-03-17T15:02:23;8.53;;;5.27;;
37483;SDS011;23337;52.212;9.926;2024-03-17T15:04:51;12.53;;;7.13;;
37483;SDS011;23337;52.212;9.926;2024-03-17T15:07:17;7.50;;;5.40;;
37483;SDS011;23337;52.212;9.926;2024-03-17T15:09:43;12.53;;;7.43;;
37483;SDS011;23337;52.212;9.926;2024-03-17T15:12:09;7.83;;;4.90;;
37483;SDS011;23337;52.212;9.926;2024-03-17T15:14:35;5.27;;;4.37;;
37483;SDS011;23337;52.212;9.926;2024-03-17T15:17:03;6.23;;;4.93;;
37483;SDS011;23337;52.212;9.926;2024-03-17T15:19:29;6.37;;;4.53;;
37483;SDS011;23337;52.212;9.926;2024-03-17T15:21:55;6.40;;;4.80;;
37483;SDS011;23337;52.212;9.926;2024-03-17T15:24:21;11.70;;;5.73;;